sensor_id;sensor_type;location;lat;lon;timestamp;temperature;humidity
33328;DHT22;19692;52.998;9.116;2022-08-03T00:01:38;20.70;99.90
33328;DHT22;19692;52.998;9.116;2022-08-03T00:04:05;20.70;99.90
33328;DHT22;19692;52.998;9.116;2022-08-03T00:06:32;20.70;99.90
33328;DHT22;19692;52.998;9.116;2022-08-03T00:08:58;20.60;99.90
33328;DHT22;19692;52.998;9.116;2022-08-03T00:11:24;20.50;99.90
33328;DHT22;19692;52.998;9.116;2022-08-03T00:13:50;20.50;99.90
33328;DHT22;19692;52.998;9.116;2022-08-03T00:16:16;20.50;99.90
33328;DHT22;19692;52.998;9.116;2022-08-03T00:18:42;20.50;99.90
33328;DHT22;19692;52.998;9.116;2022-08-03T00:21:08;20.50;99.90
33328;DHT22;19692;52.998;9.116;2022-08-03T00:23:34;20.50;99.90
33328;DHT22;19692;52.998;9.116;2022-08-03T00:26:00;20.40;99.90
33328;DHT22;19692;52.998;9.116;2022-08-03T00:28:26;20.40;99.90
33328;DHT22;19692;52.998;9.116;2022-08-03T00:30:52;20.30;99.90
33328;DHT22;19692;52.998;9.116;2022-08-03T00:33:18;20.20;99.90
33328;DHT22;19692;52.998;9.116;2022-08-03T00:35:44;20.20;99.90
33328;DHT22;19692;52.998;9.116;2022-08-03T00:38:09;20.20;99.90
33328;DHT22;19692;52.998;9.116;2022-08-03T00:40:35;20.20;99.90
33328;DHT22;19692;52.998;9.116;2022-08-03T00:43:03;20.20;99.90
33328;DHT22;19692;52.998;9.116;2022-08-03T00:45:35;20.20;99.90
33328;DHT22;19692;52.998;9.116;2022-08-03T00:48:03;20.20;99.90
33328;DHT22;19692;52.998;9.116;2022-08-03T00:50:32;20.20;99.90
33328;DHT22;19692;52.998;9.116;2022-08-03T00:53:00;20.20;99.90
33328;DHT22;19692;52.998;9.116;2022-08-03T00:55:27;20.20;99.90
33328;DHT22;19692;52.998;9.116;2022-08-03T00:57:53;20.20;99.90
33328;DHT22;19692;52.998;9.116;2022-08-03T01:00:22;20.20;99.90
33328;DHT22;19692;52.998;9.116;2022-08-03T01:02:49;20.10;99.90
33328;DHT22;19692;52.998;9.116;2022-08-03T01:05:15;20.10;99.90
33328;DHT22;19692;52.998;9.116;2022-08-03T01:10:38;19.90;99.90
33328;DHT22;19692;52.998;9.116;2022-08-03T01:16:25;19.90;99.90
33328;DHT22;19692;52.998;9.116;2022-08-03T01:22:09;19.90;99.90
33328;DHT22;19692;52.998;9.116;2022-08-03T01:24:55;19.90;99.90
33328;DHT22;19692;52.998;9.116;2022-08-03T01:27:58;19.80;99.90
33328;DHT22;19692;52.998;9.116;2022-08-03T01:30:36;19.70;99.90
33328;DHT22;19692;52.998;9.116;2022-08-03T01:33:05;19.70;99.90
33328;DHT22;19692;52.998;9.116;2022-08-03T01:35:45;19.70;99.90
33328;DHT22;19692;52.998;9.116;2022-08-03T01:38:35;19.70;99.90
33328;DHT22;19692;52.998;9.116;2022-08-03T01:41:33;19.60;99.90
33328;DHT22;19692;52.998;9.116;2022-08-03T01:44:02;19.70;99.90
33328;DHT22;19692;52.998;9.116;2022-08-03T01:46:32;19.60;99.90
33328;DHT22;19692;52.998;9.116;2022-08-03T01:48:59;19.70;99.90
33328;DHT22;19692;52.998;9.116;2022-08-03T01:51:26;19.70;99.90
33328;DHT22;19692;52.998;9.116;2022-08-03T01:53:53;19.70;99.90
33328;DHT22;19692;52.998;9.116;2022-08-03T01:56:23;19.70;99.90
33328;DHT22;19692;52.998;9.116;2022-08-03T01:58:49;19.60;99.90
33328;DHT22;19692;52.998;9.116;2022-08-03T02:01:17;19.60;99.90
33328;DHT22;19692;52.998;9.116;2022-08-03T02:03:45;19.60;99.90
33328;DHT22;19692;52.998;9.116;2022-08-03T02:06:12;19.50;99.90
33328;DHT22;19692;52.998;9.116;2022-08-03T02:08:41;19.50;99.90
33328;DHT22;19692;52.998;9.116;2022-08-03T02:11:07;19.50;99.90
33328;DHT22;19692;52.998;9.116;2022-08-03T02:13:34;19.50;99.90
33328;DHT22;19692;52.998;9.116;2022-08-03T02:16:02;19.60;99.90
33328;DHT22;19692;52.998;9.116;2022-08-03T02:18:29;19.50;99.90
33328;DHT22;19692;52.998;9.116;2022-08-03T02:21:00;19.50;99.90
33328;DHT22;19692;52.998;9.116;2022-08-03T02:23:27;19.40;99.90
33328;DHT22;19692;52.998;9.116;2022-08-03T02:25:57;19.40;99.90
33328;DHT22;19692;52.998;9.116;2022-08-03T02:28:32;19.30;99.90
33328;DHT22;19692;52.998;9.116;2022-08-03T02:31:05;19.40;99.90
33328;DHT22;19692;52.998;9.116;2022-08-03T02:33:40;19.30;99.90
33328;DHT22;19692;52.998;9.116;2022-08-03T02:36:10;19.30;99.90
33328;DHT22;19692;52.998;9.116;2022-08-03T02:38:39;19.30;99.90
33328;DHT22;19692;52.998;9.116;2022-08-03T02:41:08;19.20;99.90
33328;DHT22;19692;52.998;9.116;2022-08-03T02:43:39;19.20;99.90
33328;DHT22;19692;52.998;9.116;2022-08-03T02:46:08;19.20;99.90
33328;DHT22;19692;52.998;9.116;2022-08-03T02:48:40;19.20;99.90
33328;DHT22;19692;52.998;9.116;2022-08-03T02:51:06;19.10;99.90
33328;DHT22;19692;52.998;9.116;2022-08-03T02:53:32;19.10;99.90
33328;DHT22;19692;52.998;9.116;2022-08-03T02:55:59;19.10;99.90
33328;DHT22;19692;52.998;9.116;2022-08-03T02:58:28;19.10;99.90
33328;DHT22;19692;52.998;9.116;2022-08-03T03:00:56;19.00;99.90
33328;DHT22;19692;52.998;9.116;2022-08-03T03:03:22;19.00;99.90
33328;DHT22;19692;52.998;9.116;2022-08-03T03:05:49;19.00;99.90
33328;DHT22;19692;52.998;9.116;2022-08-03T03:08:17;19.00;99.90
33328;DHT22;19692;52.998;9.116;2022-08-03T03:10:43;18.90;99.90
33328;DHT22;19692;52.998;9.116;2022-08-03T03:13:11;18.90;99.90
33328;DHT22;19692;52.998;9.116;2022-08-03T03:15:38;18.80;99.90
33328;DHT22;19692;52.998;9.116;2022-08-03T03:18:06;18.70;99.90
33328;DHT22;19692;52.998;9.116;2022-08-03T03:20:36;18.70;99.90
33328;DHT22;19692;52.998;9.116;2022-08-03T03:23:04;18.70;99.90
33328;DHT22;19692;52.998;9.116;2022-08-03T03:25:31;18.80;99.90
33328;DHT22;19692;52.998;9.116;2022-08-03T03:27:59;18.70;99.90
33328;DHT22;19692;52.998;9.116;2022-08-03T03:30:25;18.70;99.90
33328;DHT22;19692;52.998;9.116;2022-08-03T03:32:51;18.70;99.90
33328;DHT22;19692;52.998;9.116;2022-08-03T03:35:18;18.70;99.90
33328;DHT22;19692;52.998;9.116;2022-08-03T03:37:43;18.80;99.90
33328;DHT22;19692;52.998;9.116;2022-08-03T03:40:10;18.80;99.90
33328;DHT22;19692;52.998;9.116;2022-08-03T03:42:36;18.80;99.90
33328;DHT22;19692;52.998;9.116;2022-08-03T03:45:06;18.80;99.90
33328;DHT22;19692;52.998;9.116;2022-08-03T03:47:35;18.80;99.90
33328;DHT22;19692;52.998;9.116;2022-08-03T03:50:05;18.70;99.90
33328;DHT22;19692;52.998;9.116;2022-08-03T03:52:32;18.70;99.90
33328;DHT22;19692;52.998;9.116;2022-08-03T03:54:58;18.60;99.90
33328;DHT22;19692;52.998;9.116;2022-08-03T03:57:24;18.70;99.90
33328;DHT22;19692;52.998;9.116;2022-08-03T03:59:50;18.70;99.90
33328;DHT22;19692;52.998;9.116;2022-08-03T04:02:16;18.70;99.90
33328;DHT22;19692;52.998;9.116;2022-08-03T04:04:42;18.70;99.90
33328;DHT22;19692;52.998;9.116;2022-08-03T04:07:26;18.80;99.90
33328;DHT22;19692;52.998;9.116;2022-08-03T04:10:22;18.70;99.90
33328;DHT22;19692;52.998;9.116;2022-08-03T04:13:11;18.70;99.90
33328;DHT22;19692;52.998;9.116;2022-08-03T04:15:39;18.70;99.90
33328;DHT22;19692;52.998;9.116;2022-08-03T04:18:08;18.80;99.90
33328;DHT22;19692;52.998;9.116;2022-08-03T04:20:37;18.80;99.90
33328;DHT22;19692;52.998;9.116;2022-08-03T04:23:05;18.70;99.90
33328;DHT22;19692;52.998;9.116;2022-08-03T04:25:33;18.70;99.90
33328;DHT22;19692;52.998;9.116;2022-08-03T04:28:00;18.70;99.90
33328;DHT22;19692;52.998;9.116;2022-08-03T04:30:27;18.70;99.90
33328;DHT22;19692;52.998;9.116;2022-08-03T04:32:57;18.70;99.90
33328;DHT22;19692;52.998;9.116;2022-08-03T04:35:24;18.70;99.90
33328;DHT22;19692;52.998;9.116;2022-08-03T04:37:54;18.70;99.90
33328;DHT22;19692;52.998;9.116;2022-08-03T04:40:25;18.70;99.90
33328;DHT22;19692;52.998;9.116;2022-08-03T04:42:53;18.80;99.90
33328;DHT22;19692;52.998;9.116;2022-08-03T04:45:20;18.80;99.90
33328;DHT22;19692;52.998;9.116;2022-08-03T04:47:47;18.90;99.90
33328;DHT22;19692;52.998;9.116;2022-08-03T04:50:14;18.90;99.90
33328;DHT22;19692;52.998;9.116;2022-08-03T04:52:40;18.90;99.90
33328;DHT22;19692;52.998;9.116;2022-08-03T04:55:06;18.90;99.90
33328;DHT22;19692;52.998;9.116;2022-08-03T04:57:32;19.00;99.90
33328;DHT22;19692;52.998;9.116;2022-08-03T04:59:58;18.90;99.90
33328;DHT22;19692;52.998;9.116;2022-08-03T05:02:24;18.90;99.90
33328;DHT22;19692;52.998;9.116;2022-08-03T05:04:50;19.00;99.90
33328;DHT22;19692;52.998;9.116;2022-08-03T05:07:16;19.00;99.90
33328;DHT22;19692;52.998;9.116;2022-08-03T05:09:43;19.10;99.90
33328;DHT22;19692;52.998;9.116;2022-08-03T05:12:09;19.20;99.90
33328;DHT22;19692;52.998;9.116;2022-08-03T05:14:36;19.20;99.90
33328;DHT22;19692;52.998;9.116;2022-08-03T05:17:07;19.20;99.90
33328;DHT22;19692;52.998;9.116;2022-08-03T05:19:34;19.20;99.90
33328;DHT22;19692;52.998;9.116;2022-08-03T05:21:59;19.30;99.90
33328;DHT22;19692;52.998;9.116;2022-08-03T05:24:25;19.30;99.90
33328;DHT22;19692;52.998;9.116;2022-08-03T05:26:51;19.50;99.90
33328;DHT22;19692;52.998;9.116;2022-08-03T05:29:17;19.60;99.90
33328;DHT22;19692;52.998;9.116;2022-08-03T05:31:43;19.70;99.90
33328;DHT22;19692;52.998;9.116;2022-08-03T05:34:09;19.80;99.90
33328;DHT22;19692;52.998;9.116;2022-08-03T05:36:34;19.90;99.90
33328;DHT22;19692;52.998;9.116;2022-08-03T05:39:00;20.10;99.90
33328;DHT22;19692;52.998;9.116;2022-08-03T05:41:26;20.20;99.90
33328;DHT22;19692;52.998;9.116;2022-08-03T05:43:52;20.30;99.90
33328;DHT22;19692;52.998;9.116;2022-08-03T05:46:19;20.20;99.90
33328;DHT22;19692;52.998;9.116;2022-08-03T05:48:46;20.20;99.90
33328;DHT22;19692;52.998;9.116;2022-08-03T05:51:12;20.40;99.90
33328;DHT22;19692;52.998;9.116;2022-08-03T05:53:39;20.50;99.90
33328;DHT22;19692;52.998;9.116;2022-08-03T05:56:07;20.60;99.90
33328;DHT22;19692;52.998;9.116;2022-08-03T05:58:34;20.80;99.90
33328;DHT22;19692;52.998;9.116;2022-08-03T06:00:59;20.90;99.90
33328;DHT22;19692;52.998;9.116;2022-08-03T06:03:25;21.20;99.90
33328;DHT22;19692;52.998;9.116;2022-08-03T06:05:52;21.30;99.90
33328;DHT22;19692;52.998;9.116;2022-08-03T06:08:21;21.40;99.90
33328;DHT22;19692;52.998;9.116;2022-08-03T06:10:47;21.50;99.90
33328;DHT22;19692;52.998;9.116;2022-08-03T06:13:13;21.60;99.90
33328;DHT22;19692;52.998;9.116;2022-08-03T06:15:40;21.70;99.90
33328;DHT22;19692;52.998;9.116;2022-08-03T06:18:05;21.80;99.90
33328;DHT22;19692;52.998;9.116;2022-08-03T06:20:32;21.90;99.90
33328;DHT22;19692;52.998;9.116;2022-08-03T06:22:58;22.10;99.90
33328;DHT22;19692;52.998;9.116;2022-08-03T06:25:25;22.30;99.90
33328;DHT22;19692;52.998;9.116;2022-08-03T06:27:51;22.40;99.90
33328;DHT22;19692;52.998;9.116;2022-08-03T06:30:16;22.60;99.90
33328;DHT22;19692;52.998;9.116;2022-08-03T06:32:43;22.70;99.90
33328;DHT22;19692;52.998;9.116;2022-08-03T06:35:09;22.90;99.90
33328;DHT22;19692;52.998;9.116;2022-08-03T06:37:43;23.20;99.90
33328;DHT22;19692;52.998;9.116;2022-08-03T06:40:11;23.40;99.90
33328;DHT22;19692;52.998;9.116;2022-08-03T06:42:38;23.60;99.90
33328;DHT22;19692;52.998;9.116;2022-08-03T06:45:05;23.80;99.90
33328;DHT22;19692;52.998;9.116;2022-08-03T06:47:33;23.90;99.90
33328;DHT22;19692;52.998;9.116;2022-08-03T06:50:04;24.00;99.90
33328;DHT22;19692;52.998;9.116;2022-08-03T06:52:30;24.10;99.90
33328;DHT22;19692;52.998;9.116;2022-08-03T06:54:56;24.20;99.90
33328;DHT22;19692;52.998;9.116;2022-08-03T06:57:23;24.30;99.90
33328;DHT22;19692;52.998;9.116;2022-08-03T06:59:48;24.40;99.90
33328;DHT22;19692;52.998;9.116;2022-08-03T07:02:14;24.50;99.90
33328;DHT22;19692;52.998;9.116;2022-08-03T07:04:40;24.60;99.90
33328;DHT22;19692;52.998;9.116;2022-08-03T07:07:06;24.80;99.90
33328;DHT22;19692;52.998;9.116;2022-08-03T07:09:31;24.90;99.90
33328;DHT22;19692;52.998;9.116;2022-08-03T07:11:57;25.00;99.90
33328;DHT22;19692;52.998;9.116;2022-08-03T07:14:23;25.10;99.90
33328;DHT22;19692;52.998;9.116;2022-08-03T07:16:49;25.20;99.90
33328;DHT22;19692;52.998;9.116;2022-08-03T07:19:15;25.20;99.90
33328;DHT22;19692;52.998;9.116;2022-08-03T07:21:40;25.30;99.90
33328;DHT22;19692;52.998;9.116;2022-08-03T07:24:06;25.40;99.90
33328;DHT22;19692;52.998;9.116;2022-08-03T07:26:32;25.50;99.90
33328;DHT22;19692;52.998;9.116;2022-08-03T07:28:58;25.60;99.90
33328;DHT22;19692;52.998;9.116;2022-08-03T07:31:26;25.50;99.90
33328;DHT22;19692;52.998;9.116;2022-08-03T07:33:52;25.50;99.90
33328;DHT22;19692;52.998;9.116;2022-08-03T07:36:17;25.50;99.90
33328;DHT22;19692;52.998;9.116;2022-08-03T07:38:43;25.70;99.90
33328;DHT22;19692;52.998;9.116;2022-08-03T07:41:09;25.80;99.90
33328;DHT22;19692;52.998;9.116;2022-08-03T07:43:35;26.00;99.90
33328;DHT22;19692;52.998;9.116;2022-08-03T07:46:00;26.00;99.90
33328;DHT22;19692;52.998;9.116;2022-08-03T07:48:26;26.10;99.90
33328;DHT22;19692;52.998;9.116;2022-08-03T07:50:52;26.10;99.90
33328;DHT22;19692;52.998;9.116;2022-08-03T07:53:17;26.20;99.90
33328;DHT22;19692;52.998;9.116;2022-08-03T07:55:43;26.20;99.90
33328;DHT22;19692;52.998;9.116;2022-08-03T07:58:10;26.30;99.90
33328;DHT22;19692;52.998;9.116;2022-08-03T08:00:40;26.30;99.90
33328;DHT22;19692;52.998;9.116;2022-08-03T08:03:07;26.60;99.90
33328;DHT22;19692;52.998;9.116;2022-08-03T08:05:33;26.80;99.90
33328;DHT22;19692;52.998;9.116;2022-08-03T08:08:00;26.90;99.90
33328;DHT22;19692;52.998;9.116;2022-08-03T08:10:27;26.80;99.90
33328;DHT22;19692;52.998;9.116;2022-08-03T08:12:53;26.70;99.90
33328;DHT22;19692;52.998;9.116;2022-08-03T08:15:19;26.80;99.90
33328;DHT22;19692;52.998;9.116;2022-08-03T08:17:48;27.00;99.90
33328;DHT22;19692;52.998;9.116;2022-08-03T08:20:19;27.20;99.90
33328;DHT22;19692;52.998;9.116;2022-08-03T08:22:46;27.50;99.90
33328;DHT22;19692;52.998;9.116;2022-08-03T08:25:11;27.60;99.90
33328;DHT22;19692;52.998;9.116;2022-08-03T08:27:42;27.60;99.90
33328;DHT22;19692;52.998;9.116;2022-08-03T08:30:08;27.80;99.90
33328;DHT22;19692;52.998;9.116;2022-08-03T08:32:34;28.00;99.90
33328;DHT22;19692;52.998;9.116;2022-08-03T08:35:02;28.10;99.90
33328;DHT22;19692;52.998;9.116;2022-08-03T08:37:28;28.30;99.90
33328;DHT22;19692;52.998;9.116;2022-08-03T08:39:55;28.40;99.90
33328;DHT22;19692;52.998;9.116;2022-08-03T08:42:21;28.30;99.90
33328;DHT22;19692;52.998;9.116;2022-08-03T08:44:47;28.50;99.90
33328;DHT22;19692;52.998;9.116;2022-08-03T08:47:13;28.70;99.90
33328;DHT22;19692;52.998;9.116;2022-08-03T08:49:40;28.80;99.90
33328;DHT22;19692;52.998;9.116;2022-08-03T08:52:10;28.80;99.90
33328;DHT22;19692;52.998;9.116;2022-08-03T08:54:40;28.70;99.90
33328;DHT22;19692;52.998;9.116;2022-08-03T08:57:06;28.80;99.90
33328;DHT22;19692;52.998;9.116;2022-08-03T08:59:33;28.90;99.90
33328;DHT22;19692;52.998;9.116;2022-08-03T09:01:59;29.00;99.90
33328;DHT22;19692;52.998;9.116;2022-08-03T09:04:28;29.10;99.90
33328;DHT22;19692;52.998;9.116;2022-08-03T09:06:54;29.10;99.90
33328;DHT22;19692;52.998;9.116;2022-08-03T09:09:20;28.80;99.90
33328;DHT22;19692;52.998;9.116;2022-08-03T09:11:47;28.90;99.90
33328;DHT22;19692;52.998;9.116;2022-08-03T09:14:14;28.60;99.90
33328;DHT22;19692;52.998;9.116;2022-08-03T09:16:59;28.70;99.90
33328;DHT22;19692;52.998;9.116;2022-08-03T09:19:26;28.90;99.90
33328;DHT22;19692;52.998;9.116;2022-08-03T09:22:26;28.90;99.90
33328;DHT22;19692;52.998;9.116;2022-08-03T09:27:22;29.30;99.90
33328;DHT22;19692;52.998;9.116;2022-08-03T09:29:49;29.40;99.90
33328;DHT22;19692;52.998;9.116;2022-08-03T09:32:22;29.30;99.90
33328;DHT22;19692;52.998;9.116;2022-08-03T09:34:50;29.30;99.90
33328;DHT22;19692;52.998;9.116;2022-08-03T09:37:19;29.50;99.90
33328;DHT22;19692;52.998;9.116;2022-08-03T09:39:46;29.60;99.90
33328;DHT22;19692;52.998;9.116;2022-08-03T09:42:14;29.70;99.90
33328;DHT22;19692;52.998;9.116;2022-08-03T09:44:46;29.90;99.90
33328;DHT22;19692;52.998;9.116;2022-08-03T09:47:29;30.10;99.90
33328;DHT22;19692;52.998;9.116;2022-08-03T09:50:01;30.00;99.90
33328;DHT22;19692;52.998;9.116;2022-08-03T09:52:32;30.00;99.90
33328;DHT22;19692;52.998;9.116;2022-08-03T09:55:00;30.40;99.90
33328;DHT22;19692;52.998;9.116;2022-08-03T09:57:28;30.50;99.90
33328;DHT22;19692;52.998;9.116;2022-08-03T10:00:12;30.50;99.90
33328;DHT22;19692;52.998;9.116;2022-08-03T10:02:40;30.30;99.90
33328;DHT22;19692;52.998;9.116;2022-08-03T10:05:08;30.20;99.90
33328;DHT22;19692;52.998;9.116;2022-08-03T10:07:47;30.30;99.90
33328;DHT22;19692;52.998;9.116;2022-08-03T10:10:15;30.30;99.90
33328;DHT22;19692;52.998;9.116;2022-08-03T10:12:43;30.30;99.90
33328;DHT22;19692;52.998;9.116;2022-08-03T10:15:09;30.30;99.90
33328;DHT22;19692;52.998;9.116;2022-08-03T10:17:36;30.20;99.90
33328;DHT22;19692;52.998;9.116;2022-08-03T10:20:06;30.40;99.90
33328;DHT22;19692;52.998;9.116;2022-08-03T10:22:34;30.70;99.90
33328;DHT22;19692;52.998;9.116;2022-08-03T10:25:08;30.30;99.90
33328;DHT22;19692;52.998;9.116;2022-08-03T10:27:40;30.20;99.90
33328;DHT22;19692;52.998;9.116;2022-08-03T10:30:08;30.20;99.90
33328;DHT22;19692;52.998;9.116;2022-08-03T10:35:18;30.80;99.90
33328;DHT22;19692;52.998;9.116;2022-08-03T10:37:55;30.80;99.90
33328;DHT22;19692;52.998;9.116;2022-08-03T10:40:23;31.00;99.90
33328;DHT22;19692;52.998;9.116;2022-08-03T10:42:54;30.70;99.90
33328;DHT22;19692;52.998;9.116;2022-08-03T10:45:26;30.90;99.90
33328;DHT22;19692;52.998;9.116;2022-08-03T10:47:53;31.00;99.90
33328;DHT22;19692;52.998;9.116;2022-08-03T10:50:22;31.00;99.90
33328;DHT22;19692;52.998;9.116;2022-08-03T10:53:00;30.90;99.90
33328;DHT22;19692;52.998;9.116;2022-08-03T10:55:37;31.20;99.90
33328;DHT22;19692;52.998;9.116;2022-08-03T11:01:06;31.60;99.90
33328;DHT22;19692;52.998;9.116;2022-08-03T11:03:33;31.20;99.90
33328;DHT22;19692;52.998;9.116;2022-08-03T11:06:18;31.30;99.90
33328;DHT22;19692;52.998;9.116;2022-08-03T11:08:47;31.60;99.90
33328;DHT22;19692;52.998;9.116;2022-08-03T11:14:12;31.90;99.90
33328;DHT22;19692;52.998;9.116;2022-08-03T11:19:11;32.00;99.60
33328;DHT22;19692;52.998;9.116;2022-08-03T11:35:16;31.90;98.00
33328;DHT22;19692;52.998;9.116;2022-08-03T11:43:02;32.40;97.20
33328;DHT22;19692;52.998;9.116;2022-08-03T11:45:33;32.80;97.30
33328;DHT22;19692;52.998;9.116;2022-08-03T11:48:11;33.10;97.20
33328;DHT22;19692;52.998;9.116;2022-08-03T11:50:40;33.10;96.90
33328;DHT22;19692;52.998;9.116;2022-08-03T11:53:07;32.70;97.30
33328;DHT22;19692;52.998;9.116;2022-08-03T11:55:38;32.70;97.20
33328;DHT22;19692;52.998;9.116;2022-08-03T11:58:06;32.50;96.90
33328;DHT22;19692;52.998;9.116;2022-08-03T12:00:32;31.80;97.90
33328;DHT22;19692;52.998;9.116;2022-08-03T12:03:04;32.10;97.20
33328;DHT22;19692;52.998;9.116;2022-08-03T12:05:47;32.40;97.10
33328;DHT22;19692;52.998;9.116;2022-08-03T12:08:28;32.80;96.50
33328;DHT22;19692;52.998;9.116;2022-08-03T12:10:56;32.70;95.30
33328;DHT22;19692;52.998;9.116;2022-08-03T12:13:23;33.10;95.20
33328;DHT22;19692;52.998;9.116;2022-08-03T12:15:52;33.30;94.30
33328;DHT22;19692;52.998;9.116;2022-08-03T12:18:21;33.30;94.20
33328;DHT22;19692;52.998;9.116;2022-08-03T12:20:49;33.40;94.40
33328;DHT22;19692;52.998;9.116;2022-08-03T12:23:16;33.80;93.90
33328;DHT22;19692;52.998;9.116;2022-08-03T12:25:43;34.10;93.80
33328;DHT22;19692;52.998;9.116;2022-08-03T12:30:45;34.20;92.90
33328;DHT22;19692;52.998;9.116;2022-08-03T12:33:14;34.00;92.70
33328;DHT22;19692;52.998;9.116;2022-08-03T12:35:42;34.00;92.50
33328;DHT22;19692;52.998;9.116;2022-08-03T12:38:09;34.10;92.90
33328;DHT22;19692;52.998;9.116;2022-08-03T12:40:35;34.10;92.00
33328;DHT22;19692;52.998;9.116;2022-08-03T12:43:10;34.10;92.20
33328;DHT22;19692;52.998;9.116;2022-08-03T12:45:37;34.00;92.20
33328;DHT22;19692;52.998;9.116;2022-08-03T12:48:08;33.90;92.10
33328;DHT22;19692;52.998;9.116;2022-08-03T12:50:36;33.90;92.00
33328;DHT22;19692;52.998;9.116;2022-08-03T12:53:05;34.10;91.90
33328;DHT22;19692;52.998;9.116;2022-08-03T12:55:32;34.10;91.90
33328;DHT22;19692;52.998;9.116;2022-08-03T12:57:59;34.30;91.70
33328;DHT22;19692;52.998;9.116;2022-08-03T13:00:26;33.90;91.40
33328;DHT22;19692;52.998;9.116;2022-08-03T13:03:03;33.50;91.40
33328;DHT22;19692;52.998;9.116;2022-08-03T13:05:41;33.30;92.40
33328;DHT22;19692;52.998;9.116;2022-08-03T13:08:17;33.70;92.40
33328;DHT22;19692;52.998;9.116;2022-08-03T13:10:47;33.70;92.10
33328;DHT22;19692;52.998;9.116;2022-08-03T13:13:13;33.80;91.90
33328;DHT22;19692;52.998;9.116;2022-08-03T13:15:39;34.10;91.20
33328;DHT22;19692;52.998;9.116;2022-08-03T13:18:05;34.10;91.10
33328;DHT22;19692;52.998;9.116;2022-08-03T13:20:31;34.10;90.70
33328;DHT22;19692;52.998;9.116;2022-08-03T13:22:56;34.10;91.20
33328;DHT22;19692;52.998;9.116;2022-08-03T13:25:22;34.20;91.20
33328;DHT22;19692;52.998;9.116;2022-08-03T13:27:48;34.50;90.80
33328;DHT22;19692;52.998;9.116;2022-08-03T13:30:14;34.30;90.70
33328;DHT22;19692;52.998;9.116;2022-08-03T13:32:41;34.50;90.80
33328;DHT22;19692;52.998;9.116;2022-08-03T13:35:07;34.90;90.50
33328;DHT22;19692;52.998;9.116;2022-08-03T13:37:34;35.10;88.70
33328;DHT22;19692;52.998;9.116;2022-08-03T13:40:01;35.30;88.90
33328;DHT22;19692;52.998;9.116;2022-08-03T13:42:32;35.30;87.80
33328;DHT22;19692;52.998;9.116;2022-08-03T13:45:00;34.70;89.00
33328;DHT22;19692;52.998;9.116;2022-08-03T13:47:26;34.30;89.90
33328;DHT22;19692;52.998;9.116;2022-08-03T13:52:46;34.50;89.10
33328;DHT22;19692;52.998;9.116;2022-08-03T13:55:12;34.80;87.30
33328;DHT22;19692;52.998;9.116;2022-08-03T13:57:38;34.60;87.90
33328;DHT22;19692;52.998;9.116;2022-08-03T14:00:05;34.60;88.00
33328;DHT22;19692;52.998;9.116;2022-08-03T14:02:32;34.30;89.30
33328;DHT22;19692;52.998;9.116;2022-08-03T14:04:57;34.30;89.30
33328;DHT22;19692;52.998;9.116;2022-08-03T14:07:23;34.40;89.90
33328;DHT22;19692;52.998;9.116;2022-08-03T14:09:49;34.50;89.10
33328;DHT22;19692;52.998;9.116;2022-08-03T14:12:15;34.70;88.60
33328;DHT22;19692;52.998;9.116;2022-08-03T14:14:40;34.90;87.30
33328;DHT22;19692;52.998;9.116;2022-08-03T14:17:07;35.20;87.60
33328;DHT22;19692;52.998;9.116;2022-08-03T14:19:32;35.40;85.40
33328;DHT22;19692;52.998;9.116;2022-08-03T14:21:58;35.30;85.40
33328;DHT22;19692;52.998;9.116;2022-08-03T14:24:24;35.10;86.20
33328;DHT22;19692;52.998;9.116;2022-08-03T14:26:50;34.80;86.30
33328;DHT22;19692;52.998;9.116;2022-08-03T14:29:15;35.00;86.50
33328;DHT22;19692;52.998;9.116;2022-08-03T14:31:41;34.80;85.10
33328;DHT22;19692;52.998;9.116;2022-08-03T14:34:07;34.50;85.70
33328;DHT22;19692;52.998;9.116;2022-08-03T14:36:32;34.80;87.00
33328;DHT22;19692;52.998;9.116;2022-08-03T14:38:58;34.50;85.40
33328;DHT22;19692;52.998;9.116;2022-08-03T14:41:24;34.60;85.60
33328;DHT22;19692;52.998;9.116;2022-08-03T14:43:50;34.80;86.20
33328;DHT22;19692;52.998;9.116;2022-08-03T14:46:15;34.50;85.40
33328;DHT22;19692;52.998;9.116;2022-08-03T14:48:41;34.60;85.70
33328;DHT22;19692;52.998;9.116;2022-08-03T14:51:07;34.30;85.10
33328;DHT22;19692;52.998;9.116;2022-08-03T14:53:33;34.30;85.00
33328;DHT22;19692;52.998;9.116;2022-08-03T14:55:59;34.50;85.70
33328;DHT22;19692;52.998;9.116;2022-08-03T14:58:25;34.70;85.50
33328;DHT22;19692;52.998;9.116;2022-08-03T15:00:52;35.00;84.70
33328;DHT22;19692;52.998;9.116;2022-08-03T15:03:20;35.20;84.00
33328;DHT22;19692;52.998;9.116;2022-08-03T15:05:52;35.10;83.80
33328;DHT22;19692;52.998;9.116;2022-08-03T15:08:20;34.70;84.20
33328;DHT22;19692;52.998;9.116;2022-08-03T15:10:47;34.50;84.40
33328;DHT22;19692;52.998;9.116;2022-08-03T15:13:14;34.50;83.90
33328;DHT22;19692;52.998;9.116;2022-08-03T15:15:40;34.60;83.60
33328;DHT22;19692;52.998;9.116;2022-08-03T15:18:06;34.90;83.90
33328;DHT22;19692;52.998;9.116;2022-08-03T15:20:32;35.20;84.20
33328;DHT22;19692;52.998;9.116;2022-08-03T15:22:58;35.30;83.10
33328;DHT22;19692;52.998;9.116;2022-08-03T15:25:24;34.60;83.50
33328;DHT22;19692;52.998;9.116;2022-08-03T15:27:51;33.70;85.60
33328;DHT22;19692;52.998;9.116;2022-08-03T15:30:17;33.50;87.10
33328;DHT22;19692;52.998;9.116;2022-08-03T15:32:43;33.50;87.60
33328;DHT22;19692;52.998;9.116;2022-08-03T15:35:09;33.70;88.40
33328;DHT22;19692;52.998;9.116;2022-08-03T15:37:37;34.00;86.60
33328;DHT22;19692;52.998;9.116;2022-08-03T15:40:03;34.10;86.20
33328;DHT22;19692;52.998;9.116;2022-08-03T15:42:31;34.00;86.40
33328;DHT22;19692;52.998;9.116;2022-08-03T15:44:58;33.90;86.20
33328;DHT22;19692;52.998;9.116;2022-08-03T15:47:24;34.00;86.60
33328;DHT22;19692;52.998;9.116;2022-08-03T15:49:50;33.80;86.40
33328;DHT22;19692;52.998;9.116;2022-08-03T15:52:15;33.50;86.10
33328;DHT22;19692;52.998;9.116;2022-08-03T15:54:41;33.60;86.20
33328;DHT22;19692;52.998;9.116;2022-08-03T15:57:07;33.60;85.90
33328;DHT22;19692;52.998;9.116;2022-08-03T15:59:33;33.60;85.80
33328;DHT22;19692;52.998;9.116;2022-08-03T16:01:58;33.50;84.50
33328;DHT22;19692;52.998;9.116;2022-08-03T16:04:24;33.40;85.70
33328;DHT22;19692;52.998;9.116;2022-08-03T16:06:50;33.30;86.00
33328;DHT22;19692;52.998;9.116;2022-08-03T16:09:16;33.30;87.30
33328;DHT22;19692;52.998;9.116;2022-08-03T16:11:41;33.10;86.90
33328;DHT22;19692;52.998;9.116;2022-08-03T16:14:07;32.90;87.80
33328;DHT22;19692;52.998;9.116;2022-08-03T16:16:33;33.00;87.50
33328;DHT22;19692;52.998;9.116;2022-08-03T16:19:04;33.10;88.30
33328;DHT22;19692;52.998;9.116;2022-08-03T16:21:30;33.20;87.50
33328;DHT22;19692;52.998;9.116;2022-08-03T16:23:56;33.30;87.10